sensor_id;sensor_type;location;lat;lon;timestamp;P1;durP1;ratioP1;P2;durP2;ratioP2
27580;SDS011;63557;52.302;7.964;2023-04-06T00:03:55;15.40;;;11.20;;
27580;SDS011;63557;52.302;7.964;2023-04-06T00:08:56;15.38;;;10.75;;
27580;SDS011;63557;52.302;7.964;2023-04-06T00:13:56;15.70;;;11.18;;
27580;SDS011;63557;52.302;7.964;2023-04-06T00:18:57;18.13;;;12.60;;
27580;SDS011;63557;52.302;7.964;2023-04-06T00:23:57;21.52;;;12.07;;
27580;SDS011;63557;52.302;7.964;2023-04-06T00:28:57;18.00;;;11.75;;
27580;SDS011;63557;52.302;7.964;2023-04-06T00:33:59;27.25;;;14.00;;
27580;SDS011;63557;52.302;7.964;2023-04-06T00:38:59;26.85;;;14.98;;
27580;SDS011;63557;52.302;7.964;2023-04-06T00:44:00;40.20;;;21.00;;
27580;SDS011;63557;52.302;7.964;2023-04-06T00:49:00;38.05;;;18.50;;
27580;SDS011;63557;52.302;7.964;2023-04-06T00:54:00;28.92;;;16.30;;
27580;SDS011;63557;52.302;7.964;2023-04-06T00:59:03;21.20;;;13.18;;
27580;SDS011;63557;52.302;7.964;2023-04-06T01:04:04;22.52;;;15.13;;
27580;SDS011;63557;52.302;7.964;2023-04-06T01:09:12;22.67;;;13.85;;
27580;SDS011;63557;52.302;7.964;2023-04-06T01:14:14;19.48;;;13.77;;
27580;SDS011;63557;52.302;7.964;2023-04-06T01:19:30;20.25;;;13.20;;
27580;SDS011;63557;52.302;7.964;2023-04-06T01:24:31;17.10;;;12.60;;
27580;SDS011;63557;52.302;7.964;2023-04-06T01:29:52;18.20;;;12.20;;
27580;SDS011;63557;52.302;7.964;2023-04-06T01:35:06;19.08;;;13.13;;
27580;SDS011;63557;52.302;7.964;2023-04-06T01:40:11;24.50;;;13.13;;
27580;SDS011;63557;52.302;7.964;2023-04-06T01:45:18;22.98;;;12.80;;
27580;SDS011;63557;52.302;7.964;2023-04-06T01:50:20;22.05;;;13.73;;
27580;SDS011;63557;52.302;7.964;2023-04-06T01:55:21;23.17;;;15.57;;
27580;SDS011;63557;52.302;7.964;2023-04-06T02:00:40;25.80;;;16.27;;
27580;SDS011;63557;52.302;7.964;2023-04-06T02:05:41;21.48;;;14.40;;
27580;SDS011;63557;52.302;7.964;2023-04-06T02:11:01;20.67;;;13.15;;
27580;SDS011;63557;52.302;7.964;2023-04-06T02:16:11;18.67;;;12.95;;
27580;SDS011;63557;52.302;7.964;2023-04-06T02:21:12;21.55;;;12.63;;
27580;SDS011;63557;52.302;7.964;2023-04-06T02:26:13;20.10;;;13.35;;
27580;SDS011;63557;52.302;7.964;2023-04-06T02:31:13;19.88;;;13.05;;
27580;SDS011;63557;52.302;7.964;2023-04-06T02:36:16;31.92;;;17.73;;
27580;SDS011;63557;52.302;7.964;2023-04-06T02:41:17;39.03;;;20.30;;
27580;SDS011;63557;52.302;7.964;2023-04-06T02:46:18;33.42;;;19.52;;
27580;SDS011;63557;52.302;7.964;2023-04-06T02:51:19;34.25;;;21.20;;
27580;SDS011;63557;52.302;7.964;2023-04-06T02:56:26;34.78;;;18.90;;
27580;SDS011;63557;52.302;7.964;2023-04-06T03:01:27;22.02;;;13.75;;
27580;SDS011;63557;52.302;7.964;2023-04-06T03:11:39;22.30;;;15.40;;
27580;SDS011;63557;52.302;7.964;2023-04-06T03:16:40;18.88;;;13.85;;
27580;SDS011;63557;52.302;7.964;2023-04-06T03:21:40;17.92;;;12.65;;
27580;SDS011;63557;52.302;7.964;2023-04-06T03:26:41;19.58;;;13.57;;
27580;SDS011;63557;52.302;7.964;2023-04-06T03:31:42;23.23;;;13.85;;
27580;SDS011;63557;52.302;7.964;2023-04-06T03:37:06;20.17;;;13.98;;
27580;SDS011;63557;52.302;7.964;2023-04-06T03:42:07;28.05;;;13.75;;
27580;SDS011;63557;52.302;7.964;2023-04-06T03:47:10;26.73;;;14.65;;
27580;SDS011;63557;52.302;7.964;2023-04-06T03:52:10;21.23;;;14.15;;
27580;SDS011;63557;52.302;7.964;2023-04-06T03:57:11;24.05;;;14.68;;
27580;SDS011;63557;52.302;7.964;2023-04-06T04:02:11;22.52;;;14.57;;
27580;SDS011;63557;52.302;7.964;2023-04-06T04:07:12;23.52;;;15.00;;
27580;SDS011;63557;52.302;7.964;2023-04-06T04:12:12;21.52;;;14.68;;
27580;SDS011;63557;52.302;7.964;2023-04-06T04:17:16;26.45;;;14.57;;
27580;SDS011;63557;52.302;7.964;2023-04-06T04:22:16;20.63;;;14.20;;
27580;SDS011;63557;52.302;7.964;2023-04-06T04:27:17;23.92;;;16.17;;
27580;SDS011;63557;52.302;7.964;2023-04-06T04:32:18;28.73;;;16.17;;
27580;SDS011;63557;52.302;7.964;2023-04-06T04:37:20;33.38;;;19.58;;
27580;SDS011;63557;52.302;7.964;2023-04-06T04:42:27;41.50;;;23.70;;
27580;SDS011;63557;52.302;7.964;2023-04-06T04:47:31;67.40;;;32.20;;
27580;SDS011;63557;52.302;7.964;2023-04-06T04:52:32;46.92;;;23.73;;
27580;SDS011;63557;52.302;7.964;2023-04-06T04:57:51;31.77;;;19.40;;
27580;SDS011;63557;52.302;7.964;2023-04-06T05:02:57;22.67;;;15.02;;
27580;SDS011;63557;52.302;7.964;2023-04-06T05:08:03;29.50;;;16.33;;
27580;SDS011;63557;52.302;7.964;2023-04-06T05:13:24;28.75;;;17.55;;
27580;SDS011;63557;52.302;7.964;2023-04-06T05:18:27;29.58;;;20.08;;
27580;SDS011;63557;52.302;7.964;2023-04-06T05:23:28;25.83;;;15.88;;
27580;SDS011;63557;52.302;7.964;2023-04-06T05:28:29;28.00;;;16.58;;
27580;SDS011;63557;52.302;7.964;2023-04-06T05:33:29;26.63;;;16.52;;
27580;SDS011;63557;52.302;7.964;2023-04-06T05:38:41;33.70;;;17.85;;
27580;SDS011;63557;52.302;7.964;2023-04-06T05:43:54;23.10;;;16.38;;
27580;SDS011;63557;52.302;7.964;2023-04-06T05:48:57;26.67;;;16.20;;
27580;SDS011;63557;52.302;7.964;2023-04-06T05:54:01;23.38;;;15.75;;
27580;SDS011;63557;52.302;7.964;2023-04-06T05:59:02;28.40;;;15.98;;
27580;SDS011;63557;52.302;7.964;2023-04-06T06:04:04;30.02;;;17.38;;
27580;SDS011;63557;52.302;7.964;2023-04-06T06:09:07;34.05;;;17.17;;
27580;SDS011;63557;52.302;7.964;2023-04-06T06:14:12;36.08;;;19.10;;
27580;SDS011;63557;52.302;7.964;2023-04-06T06:19:14;32.05;;;17.98;;
27580;SDS011;63557;52.302;7.964;2023-04-06T06:24:16;29.38;;;17.42;;
27580;SDS011;63557;52.302;7.964;2023-04-06T06:29:17;26.05;;;16.20;;
27580;SDS011;63557;52.302;7.964;2023-04-06T06:34:17;20.77;;;15.82;;
27580;SDS011;63557;52.302;7.964;2023-04-06T06:39:18;26.52;;;15.40;;
27580;SDS011;63557;52.302;7.964;2023-04-06T06:44:19;24.25;;;15.98;;
27580;SDS011;63557;52.302;7.964;2023-04-06T06:49:19;26.05;;;14.55;;
27580;SDS011;63557;52.302;7.964;2023-04-06T06:54:20;25.95;;;15.77;;
27580;SDS011;63557;52.302;7.964;2023-04-06T06:59:20;23.40;;;15.40;;
27580;SDS011;63557;52.302;7.964;2023-04-06T07:04:21;23.42;;;15.25;;
27580;SDS011;63557;52.302;7.964;2023-04-06T07:09:21;22.08;;;14.88;;
27580;SDS011;63557;52.302;7.964;2023-04-06T07:14:22;24.02;;;13.38;;
27580;SDS011;63557;52.302;7.964;2023-04-06T07:19:22;22.05;;;14.40;;
27580;SDS011;63557;52.302;7.964;2023-04-06T07:24:23;21.50;;;15.23;;
27580;SDS011;63557;52.302;7.964;2023-04-06T07:29:24;20.27;;;14.40;;
27580;SDS011;63557;52.302;7.964;2023-04-06T07:34:25;24.15;;;13.68;;
27580;SDS011;63557;52.302;7.964;2023-04-06T07:39:26;30.08;;;15.18;;
27580;SDS011;63557;52.302;7.964;2023-04-06T07:44:28;23.73;;;14.45;;
27580;SDS011;63557;52.302;7.964;2023-04-06T07:49:28;21.27;;;13.63;;
27580;SDS011;63557;52.302;7.964;2023-04-06T07:54:29;19.38;;;14.32;;
27580;SDS011;63557;52.302;7.964;2023-04-06T07:59:29;20.20;;;13.57;;
27580;SDS011;63557;52.302;7.964;2023-04-06T08:04:30;25.27;;;14.27;;
27580;SDS011;63557;52.302;7.964;2023-04-06T08:09:30;23.80;;;14.70;;
27580;SDS011;63557;52.302;7.964;2023-04-06T08:14:31;23.48;;;14.30;;
27580;SDS011;63557;52.302;7.964;2023-04-06T08:19:31;21.88;;;13.23;;
27580;SDS011;63557;52.302;7.964;2023-04-06T08:24:32;16.98;;;13.48;;
27580;SDS011;63557;52.302;7.964;2023-04-06T08:29:32;19.73;;;13.18;;
27580;SDS011;63557;52.302;7.964;2023-04-06T08:34:32;19.53;;;14.60;;
27580;SDS011;63557;52.302;7.964;2023-04-06T08:39:33;22.00;;;14.35;;
27580;SDS011;63557;52.302;7.964;2023-04-06T08:44:33;17.98;;;13.23;;
27580;SDS011;63557;52.302;7.964;2023-04-06T08:49:34;18.33;;;12.90;;
27580;SDS011;63557;52.302;7.964;2023-04-06T08:54:34;16.58;;;13.45;;
27580;SDS011;63557;52.302;7.964;2023-04-06T08:59:35;21.58;;;13.60;;
27580;SDS011;63557;52.302;7.964;2023-04-06T09:04:36;18.55;;;13.50;;
27580;SDS011;63557;52.302;7.964;2023-04-06T09:09:37;16.45;;;12.90;;
27580;SDS011;63557;52.302;7.964;2023-04-06T09:14:39;20.73;;;14.02;;
27580;SDS011;63557;52.302;7.964;2023-04-06T09:19:46;16.33;;;12.93;;
27580;SDS011;63557;52.302;7.964;2023-04-06T09:24:48;20.40;;;14.63;;
27580;SDS011;63557;52.302;7.964;2023-04-06T09:29:48;16.23;;;13.90;;
27580;SDS011;63557;52.302;7.964;2023-04-06T09:34:49;20.02;;;15.10;;
27580;SDS011;63557;52.302;7.964;2023-04-06T09:39:49;24.17;;;15.77;;
27580;SDS011;63557;52.302;7.964;2023-04-06T09:44:52;20.38;;;15.45;;
27580;SDS011;63557;52.302;7.964;2023-04-06T09:49:55;20.57;;;15.87;;
27580;SDS011;63557;52.302;7.964;2023-04-06T09:54:56;18.92;;;16.67;;
27580;SDS011;63557;52.302;7.964;2023-04-06T10:00:05;21.55;;;17.38;;
27580;SDS011;63557;52.302;7.964;2023-04-06T10:05:13;21.98;;;17.98;;
27580;SDS011;63557;52.302;7.964;2023-04-06T10:10:16;24.25;;;17.33;;
27580;SDS011;63557;52.302;7.964;2023-04-06T10:15:17;19.70;;;16.42;;
27580;SDS011;63557;52.302;7.964;2023-04-06T10:20:21;20.30;;;17.00;;
27580;SDS011;63557;52.302;7.964;2023-04-06T10:25:26;23.07;;;17.43;;
27580;SDS011;63557;52.302;7.964;2023-04-06T10:30:27;24.57;;;16.83;;
27580;SDS011;63557;52.302;7.964;2023-04-06T10:35:37;20.95;;;17.88;;
27580;SDS011;63557;52.302;7.964;2023-04-06T10:40:41;25.63;;;19.80;;
27580;SDS011;63557;52.302;7.964;2023-04-06T10:45:45;26.67;;;21.58;;
27580;SDS011;63557;52.302;7.964;2023-04-06T10:50:54;26.05;;;21.88;;
27580;SDS011;63557;52.302;7.964;2023-04-06T10:55:55;28.08;;;21.75;;
27580;SDS011;63557;52.302;7.964;2023-04-06T11:00:56;27.80;;;21.60;;
27580;SDS011;63557;52.302;7.964;2023-04-06T11:05:56;25.55;;;20.88;;
27580;SDS011;63557;52.302;7.964;2023-04-06T11:11:06;25.03;;;21.30;;
27580;SDS011;63557;52.302;7.964;2023-04-06T11:16:11;28.17;;;20.50;;
27580;SDS011;63557;52.302;7.964;2023-04-06T11:21:12;27.27;;;18.95;;
27580;SDS011;63557;52.302;7.964;2023-04-06T11:26:13;23.05;;;19.40;;
27580;SDS011;63557;52.302;7.964;2023-04-06T11:31:14;22.00;;;17.95;;
27580;SDS011;63557;52.302;7.964;2023-04-06T11:36:14;20.15;;;17.77;;
27580;SDS011;63557;52.302;7.964;2023-04-06T11:41:15;22.70;;;17.35;;
27580;SDS011;63557;52.302;7.964;2023-04-06T11:46:17;21.60;;;17.98;;
27580;SDS011;63557;52.302;7.964;2023-04-06T11:51:22;23.95;;;18.38;;
27580;SDS011;63557;52.302;7.964;2023-04-06T11:56:24;22.40;;;19.17;;
27580;SDS011;63557;52.302;7.964;2023-04-06T12:01:25;20.33;;;17.85;;
27580;SDS011;63557;52.302;7.964;2023-04-06T12:06:26;23.45;;;19.17;;
27580;SDS011;63557;52.302;7.964;2023-04-06T12:11:26;20.00;;;17.93;;
27580;SDS011;63557;52.302;7.964;2023-04-06T12:16:27;21.87;;;19.57;;
27580;SDS011;63557;52.302;7.964;2023-04-06T12:21:27;19.43;;;16.87;;
27580;SDS011;63557;52.302;7.964;2023-04-06T12:26:29;20.90;;;18.70;;
27580;SDS011;63557;52.302;7.964;2023-04-06T12:31:29;19.92;;;17.88;;
27580;SDS011;63557;52.302;7.964;2023-04-06T12:36:30;21.50;;;18.83;;
27580;SDS011;63557;52.302;7.964;2023-04-06T12:41:31;24.75;;;17.75;;
27580;SDS011;63557;52.302;7.964;2023-04-06T12:46:31;20.27;;;17.27;;
27580;SDS011;63557;52.302;7.964;2023-04-06T12:51:32;22.92;;;19.75;;
27580;SDS011;63557;52.302;7.964;2023-04-06T12:56:33;25.75;;;19.63;;
27580;SDS011;63557;52.302;7.964;2023-04-06T13:01:33;27.63;;;19.83;;
27580;SDS011;63557;52.302;7.964;2023-04-06T13:06:33;25.35;;;20.20;;
27580;SDS011;63557;52.302;7.964;2023-04-06T13:11:34;25.55;;;20.17;;
27580;SDS011;63557;52.302;7.964;2023-04-06T13:16:34;24.23;;;20.27;;
27580;SDS011;63557;52.302;7.964;2023-04-06T13:21:36;24.75;;;19.95;;
27580;SDS011;63557;52.302;7.964;2023-04-06T13:26:36;24.53;;;19.40;;
27580;SDS011;63557;52.302;7.964;2023-04-06T13:31:37;23.10;;;19.17;;
27580;SDS011;63557;52.302;7.964;2023-04-06T13:36:38;22.33;;;18.98;;
27580;SDS011;63557;52.302;7.964;2023-04-06T13:41:41;22.40;;;18.83;;
27580;SDS011;63557;52.302;7.964;2023-04-06T13:46:41;27.23;;;18.77;;
27580;SDS011;63557;52.302;7.964;2023-04-06T13:51:43;24.88;;;18.73;;
27580;SDS011;63557;52.302;7.964;2023-04-06T13:56:43;24.67;;;17.70;;
27580;SDS011;63557;52.302;7.964;2023-04-06T14:01:44;23.93;;;18.70;;
27580;SDS011;63557;52.302;7.964;2023-04-06T14:06:44;28.27;;;20.58;;
27580;SDS011;63557;52.302;7.964;2023-04-06T14:11:45;27.15;;;20.00;;
27580;SDS011;63557;52.302;7.964;2023-04-06T14:16:45;30.00;;;21.50;;
27580;SDS011;63557;52.302;7.964;2023-04-06T14:21:47;25.92;;;17.17;;
27580;SDS011;63557;52.302;7.964;2023-04-06T14:26:48;25.08;;;17.52;;
27580;SDS011;63557;52.302;7.964;2023-04-06T14:31:48;27.00;;;19.73;;
27580;SDS011;63557;52.302;7.964;2023-04-06T14:36:49;23.63;;;18.57;;
27580;SDS011;63557;52.302;7.964;2023-04-06T14:41:49;23.90;;;18.30;;
27580;SDS011;63557;52.302;7.964;2023-04-06T14:46:49;26.73;;;17.83;;
27580;SDS011;63557;52.302;7.964;2023-04-06T14:51:50;27.95;;;19.23;;
27580;SDS011;63557;52.302;7.964;2023-04-06T14:56:51;25.63;;;18.92;;
27580;SDS011;63557;52.302;7.964;2023-04-06T15:01:52;25.25;;;20.17;;
27580;SDS011;63557;52.302;7.964;2023-04-06T15:06:52;26.30;;;19.35;;
27580;SDS011;63557;52.302;7.964;2023-04-06T15:11:53;24.70;;;17.50;;
27580;SDS011;63557;52.302;7.964;2023-04-06T15:16:53;30.70;;;19.93;;
27580;SDS011;63557;52.302;7.964;2023-04-06T15:21:53;28.33;;;20.43;;
27580;SDS011;63557;52.302;7.964;2023-04-06T15:26:54;31.43;;;19.70;;
27580;SDS011;63557;52.302;7.964;2023-04-06T15:31:55;32.13;;;21.90;;
27580;SDS011;63557;52.302;7.964;2023-04-06T15:36:55;30.40;;;20.42;;
27580;SDS011;63557;52.302;7.964;2023-04-06T15:42:00;33.80;;;21.97;;
27580;SDS011;63557;52.302;7.964;2023-04-06T15:47:01;31.65;;;22.08;;
27580;SDS011;63557;52.302;7.964;2023-04-06T15:52:01;33.57;;;20.80;;
27580;SDS011;63557;52.302;7.964;2023-04-06T15:57:02;30.98;;;21.00;;
27580;SDS011;63557;52.302;7.964;2023-04-06T16:02:02;32.53;;;21.57;;
27580;SDS011;63557;52.302;7.964;2023-04-06T16:07:02;30.93;;;20.83;;
27580;SDS011;63557;52.302;7.964;2023-04-06T16:12:03;35.07;;;22.50;;
27580;SDS011;63557;52.302;7.964;2023-04-06T16:17:04;31.73;;;22.35;;
27580;SDS011;63557;52.302;7.964;2023-04-06T16:22:05;29.90;;;21.07;;
27580;SDS011;63557;52.302;7.964;2023-04-06T16:27:05;32.20;;;20.52;;
27580;SDS011;63557;52.302;7.964;2023-04-06T16:32:06;34.45;;;23.45;;
27580;SDS011;63557;52.302;7.964;2023-04-06T16:37:06;30.42;;;21.60;;
27580;SDS011;63557;52.302;7.964;2023-04-06T16:42:06;31.47;;;22.50;;
27580;SDS011;63557;52.302;7.964;2023-04-06T16:47:07;35.90;;;22.53;;
27580;SDS011;63557;52.302;7.964;2023-04-06T16:52:08;32.92;;;22.88;;
27580;SDS011;63557;52.302;7.964;2023-04-06T16:57:09;33.53;;;22.80;;
27580;SDS011;63557;52.302;7.964;2023-04-06T17:02:10;34.83;;;23.45;;
27580;SDS011;63557;52.302;7.964;2023-04-06T17:07:10;35.43;;;25.00;;
27580;SDS011;63557;52.302;7.964;2023-04-06T17:12:10;34.38;;;22.50;;
27580;SDS011;63557;52.302;7.964;2023-04-06T17:17:12;33.50;;;21.65;;
27580;SDS011;63557;52.302;7.964;2023-04-06T17:22:13;32.92;;;25.10;;
27580;SDS011;63557;52.302;7.964;2023-04-06T17:27:19;32.58;;;20.20;;
27580;SDS011;63557;52.302;7.964;2023-04-06T17:32:22;34.53;;;21.88;;
27580;SDS011;63557;52.302;7.964;2023-04-06T17:37:22;34.77;;;22.00;;
27580;SDS011;63557;52.302;7.964;2023-04-06T17:42:23;31.55;;;20.10;;
27580;SDS011;63557;52.302;7.964;2023-04-06T17:47:23;33.40;;;19.87;;
27580;SDS011;63557;52.302;7.964;2023-04-06T17:52:29;27.98;;;18.73;;
27580;SDS011;63557;52.302;7.964;2023-04-06T17:57:30;28.23;;;19.38;;
27580;SDS011;63557;52.302;7.964;2023-04-06T18:02:30;23.80;;;16.67;;
27580;SDS011;63557;52.302;7.964;2023-04-06T18:07:32;26.73;;;16.88;;
27580;SDS011;63557;52.302;7.964;2023-04-06T18:12:32;23.37;;;16.17;;
27580;SDS011;63557;52.302;7.964;2023-04-06T18:17:33;20.80;;;14.80;;
27580;SDS011;63557;52.302;7.964;2023-04-06T18:22:33;21.52;;;14.63;;
27580;SDS011;63557;52.302;7.964;2023-04-06T18:27:35;23.13;;;15.35;;
27580;SDS011;63557;52.302;7.964;2023-04-06T18:32:36;24.50;;;17.30;;
27580;SDS011;63557;52.302;7.964;2023-04-06T18:37:36;36.55;;;27.73;;
27580;SDS011;63557;52.302;7.964;2023-04-06T18:42:37;27.77;;;19.20;;
27580;SDS011;63557;52.302;7.964;2023-04-06T18:47:37;28.30;;;20.02;;
27580;SDS011;63557;52.302;7.964;2023-04-06T18:52:39;28.50;;;19.57;;
27580;SDS011;63557;52.302;7.964;2023-04-06T18:57:39;32.47;;;21.20;;
27580;SDS011;63557;52.302;7.964;2023-04-06T19:02:40;27.38;;;19.17;;
27580;SDS011;63557;52.302;7.964;2023-04-06T19:07:40;29.13;;;19.83;;
27580;SDS011;63557;52.302;7.964;2023-04-06T19:12:41;26.15;;;19.80;;
27580;SDS011;63557;52.302;7.964;2023-04-06T19:17:42;27.58;;;19.13;;
27580;SDS011;63557;52.302;7.964;2023-04-06T19:22:42;22.48;;;17.15;;
27580;SDS011;63557;52.302;7.964;2023-04-06T19:27:44;21.20;;;16.58;;
27580;SDS011;63557;52.302;7.964;2023-04-06T19:32:44;26.90;;;17.15;;
27580;SDS011;63557;52.302;7.964;2023-04-06T19:37:45;34.22;;;19.80;;
27580;SDS011;63557;52.302;7.964;2023-04-06T19:42:45;24.45;;;14.45;;
27580;SDS011;63557;52.302;7.964;2023-04-06T19:47:45;25.50;;;15.82;;
27580;SDS011;63557;52.302;7.964;2023-04-06T19:52:46;20.30;;;12.80;;
27580;SDS011;63557;52.302;7.964;2023-04-06T19:57:46;24.08;;;15.13;;
27580;SDS011;63557;52.302;7.964;2023-04-06T20:02:47;21.70;;;15.37;;
27580;SDS011;63557;52.302;7.964;2023-04-06T20:07:47;21.42;;;15.48;;
27580;SDS011;63557;52.302;7.964;2023-04-06T20:12:49;21.40;;;15.68;;
27580;SDS011;63557;52.302;7.964;2023-04-06T20:17:49;26.38;;;15.88;;
27580;SDS011;63557;52.302;7.964;2023-04-06T20:22:50;25.08;;;16.23;;
27580;SDS011;63557;52.302;7.964;2023-04-06T20:27:51;25.10;;;17.37;;
27580;SDS011;63557;52.302;7.964;2023-04-06T20:32:52;23.85;;;16.13;;
27580;SDS011;63557;52.302;7.964;2023-04-06T20:37:52;25.03;;;17.80;;
27580;SDS011;63557;52.302;7.964;2023-04-06T20:42:53;24.17;;;16.93;;
27580;SDS011;63557;52.302;7.964;2023-04-06T20:47:54;27.63;;;18.52;;
27580;SDS011;63557;52.302;7.964;2023-04-06T20:52:54;29.07;;;19.53;;
27580;SDS011;63557;52.302;7.964;2023-04-06T20:57:55;31.40;;;18.97;;
27580;SDS011;63557;52.302;7.964;2023-04-06T21:02:55;27.47;;;18.80;;
27580;SDS011;63557;52.302;7.964;2023-04-06T21:07:55;31.20;;;18.90;;
27580;SDS011;63557;52.302;7.964;2023-04-06T21:12:56;26.48;;;19.05;;
27580;SDS011;63557;52.302;7.964;2023-04-06T21:17:56;28.40;;;19.33;;
27580;SDS011;63557;52.302;7.964;2023-04-06T21:22:57;26.83;;;19.60;;
27580;SDS011;63557;52.302;7.964;2023-04-06T21:27:57;32.17;;;20.80;;
27580;SDS011;63557;52.302;7.964;2023-04-06T21:32:57;31.70;;;19.97;;
27580;SDS011;63557;52.302;7.964;2023-04-06T21:37:58;28.77;;;20.90;;
27580;SDS011;63557;52.302;7.964;2023-04-06T21:42:58;31.55;;;20.92;;
27580;SDS011;63557;52.302;7.964;2023-04-06T21:47:58;29.93;;;21.73;;
27580;SDS011;63557;52.302;7.964;2023-04-06T21:52:59;29.35;;;21.95;;
27580;SDS011;63557;52.302;7.964;2023-04-06T21:57:59;35.08;;;21.95;;
27580;SDS011;63557;52.302;7.964;2023-04-06T22:03:00;29.97;;;19.87;;
27580;SDS011;63557;52.302;7.964;2023-04-06T22:08:00;30.23;;;19.73;;
27580;SDS011;63557;52.302;7.964;2023-04-06T22:13:03;27.77;;;18.90;;
27580;SDS011;63557;52.302;7.964;2023-04-06T22:18:04;25.98;;;18.20;;
27580;SDS011;63557;52.302;7.964;2023-04-06T22:23:04;29.60;;;20.00;;
27580;SDS011;63557;52.302;7.964;2023-04-06T22:28:04;28.37;;;19.97;;
27580;SDS011;63557;52.302;7.964;2023-04-06T22:33:05;25.60;;;18.92;;
27580;SDS011;63557;52.302;7.964;2023-04-06T22:38:06;30.35;;;20.33;;
27580;SDS011;63557;52.302;7.964;2023-04-06T22:43:06;26.88;;;17.85;;
27580;SDS011;63557;52.302;7.964;2023-04-06T22:48:07;28.83;;;18.65;;
27580;SDS011;63557;52.302;7.964;2023-04-06T22:53:07;27.37;;;18.20;;
27580;SDS011;63557;52.302;7.964;2023-04-06T22:58:07;27.83;;;18.77;;
27580;SDS011;63557;52.302;7.964;2023-04-06T23:03:08;30.37;;;18.67;;
27580;SDS011;63557;52.302;7.964;2023-04-06T23:08:08;28.60;;;19.57;;
27580;SDS011;63557;52.302;7.964;2023-04-06T23:13:08;28.23;;;19.53;;
27580;SDS011;63557;52.302;7.964;2023-04-06T23:18:09;30.95;;;20.25;;
27580;SDS011;63557;52.302;7.964;2023-04-06T23:23:09;29.33;;;19.77;;
27580;SDS011;63557;52.302;7.964;2023-04-06T23:28:10;29.93;;;21.40;;
27580;SDS011;63557;52.302;7.964;2023-04-06T23:33:10;32.00;;;21.57;;
27580;SDS011;63557;52.302;7.964;2023-04-06T23:38:10;35.60;;;23.55;;
27580;SDS011;63557;52.302;7.964;2023-04-06T23:43:11;30.58;;;20.98;;
27580;SDS011;63557;52.302;7.964;2023-04-06T23:48:11;25.98;;;18.67;;
27580;SDS011;63557;52.302;7.964;2023-04-06T23:53:12;27.73;;;19.63;;
27580;SDS011;63557;52.302;7.964;2023-04-06T23:58:12;27.70;;;19.53;;
